Terminal Aerodrome Forecast
Issued by NWS

Home | Current Version | Previous Version | Text Only | Print | Product List | Glossary On
Versions: 1 2 3 4 5 6 7 8 9 10 11 12 13
000
FTUS45 KRIW 251127
TAFRKS
TAF
KRKS 251127Z 2512/2612 26017G25KT P6SM VCSH SCT015 BKN060
     FM251700 29018G26KT P6SM VCSH BKN035
     FM252000 33011KT 3SM -SHSN SCT012 OVC020
     FM260000 05010KT P6SM VCSH SCT015 BKN030
     FM260300 VRB06KT P6SM SCT030 BKN050
     FM260900 27011KT P6SM VCSH BKN030=

USA.gov is the U.S. government's official web portal to all federal, state and local government web resources and services.